createdAt,value
2019-05-06T00:00:59.181Z,1003.54
2019-05-06T00:01:54.862Z,1003.51
2019-05-06T00:02:54.499Z,1003.45
2019-05-06T00:03:54.274Z,1003.45
2019-05-06T00:04:54.198Z,1003.48
2019-05-06T00:05:54.283Z,1003.51
2019-05-06T00:06:54.767Z,1003.51
2019-05-06T00:07:54.447Z,1003.44
2019-05-06T00:08:54.577Z,1003.47
2019-05-06T00:09:54.014Z,1003.40
2019-05-06T00:10:54.280Z,1003.54
2019-05-06T00:11:54.459Z,1003.54
2019-05-06T00:12:53.658Z,1003.52
2019-05-06T00:13:54.325Z,1003.55
2019-05-06T00:14:54.197Z,1003.55
2019-05-06T00:15:54.409Z,1003.51
2019-05-06T00:16:55.074Z,1003.45
2019-05-06T00:17:54.037Z,1003.46
2019-05-06T00:18:54.172Z,1003.50
2019-05-06T00:19:54.358Z,1003.55
2019-05-06T00:20:57.179Z,1003.44
2019-05-06T00:21:54.031Z,1003.50
2019-05-06T00:22:54.578Z,1003.43
2019-05-06T00:23:54.702Z,1003.44
2019-05-06T00:24:54.736Z,1003.48
2019-05-06T00:25:53.597Z,1003.39
2019-05-06T00:26:57.202Z,1003.52
2019-05-06T00:27:54.447Z,1003.45
2019-05-06T00:28:53.929Z,1003.45
2019-05-06T00:29:54.945Z,1003.51
2019-05-06T00:30:55.850Z,1003.51
2019-05-06T00:31:54.402Z,1003.50
2019-05-06T00:32:53.898Z,1003.51
2019-05-06T00:33:54.035Z,1003.42
2019-05-06T00:34:54.667Z,1003.40
2019-05-06T00:35:53.834Z,1003.40
2019-05-06T00:36:54.509Z,1003.44
2019-05-06T00:37:53.690Z,1003.47
2019-05-06T00:38:53.949Z,1003.45
2019-05-06T00:39:53.932Z,1003.35
2019-05-06T00:40:54.319Z,1003.45
2019-05-06T00:41:54.188Z,1003.45
2019-05-06T00:42:54.236Z,1003.46
2019-05-06T00:43:54.597Z,1003.42
2019-05-06T00:44:53.716Z,1003.53
2019-05-06T00:45:53.762Z,1003.50
2019-05-06T00:46:54.603Z,1003.48
2019-05-06T00:47:53.631Z,1003.48
2019-05-06T00:48:54.284Z,1003.50
2019-05-06T00:49:54.608Z,1003.47
2019-05-06T00:50:53.649Z,1003.45
2019-05-06T00:51:55.030Z,1003.45
2019-05-06T00:52:53.947Z,1003.44
2019-05-06T00:53:54.386Z,1003.42
2019-05-06T00:54:54.656Z,1003.48
2019-05-06T00:55:53.826Z,1003.47
2019-05-06T00:56:54.121Z,1003.44
2019-05-06T00:57:54.496Z,1003.42
2019-05-06T00:58:54.416Z,1003.51
2019-05-06T00:59:53.880Z,1003.44
2019-05-06T01:00:53.800Z,1003.43
2019-05-06T01:01:53.865Z,1003.44
2019-05-06T01:02:54.245Z,1003.40
2019-05-06T01:03:53.706Z,1003.41
2019-05-06T01:04:54.159Z,1003.45
2019-05-06T01:05:54.214Z,1003.44
2019-05-06T01:06:54.524Z,1003.47
2019-05-06T01:07:54.904Z,1003.38
2019-05-06T01:08:54.436Z,1003.42
2019-05-06T01:09:54.165Z,1003.36
2019-05-06T01:10:54.421Z,1003.46
2019-05-06T01:11:54.184Z,1003.47
2019-05-06T01:12:54.445Z,1003.46
2019-05-06T01:13:54.491Z,1003.44
2019-05-06T01:14:54.530Z,1003.32
2019-05-06T01:15:54.711Z,1003.35
2019-05-06T01:16:54.757Z,1003.42
2019-05-06T01:17:53.841Z,1003.38
2019-05-06T01:18:54.163Z,1003.39
2019-05-06T01:19:54.132Z,1003.47
2019-05-06T01:20:54.138Z,1003.39
2019-05-06T01:21:53.997Z,1003.47
2019-05-06T01:22:54.429Z,1003.40
2019-05-06T01:23:54.486Z,1003.47
2019-05-06T01:24:52.832Z,1003.42
2019-05-06T01:25:54.583Z,1003.52
2019-05-06T01:26:53.669Z,1003.45
2019-05-06T01:27:54.013Z,1003.46
2019-05-06T01:28:54.531Z,1003.50
2019-05-06T01:29:54.441Z,1003.52
2019-05-06T01:30:53.545Z,1003.51
2019-05-06T01:31:54.389Z,1003.44
2019-05-06T01:32:54.365Z,1003.45
2019-05-06T01:33:53.634Z,1003.47
2019-05-06T01:34:53.743Z,1003.50
2019-05-06T01:35:54.163Z,1003.42
2019-05-06T01:36:54.577Z,1003.44
2019-05-06T01:37:54.570Z,1003.36
2019-05-06T01:38:53.530Z,1003.37
2019-05-06T01:39:54.192Z,1003.45
2019-05-06T01:40:54.602Z,1003.45
2019-05-06T01:41:53.679Z,1003.51
2019-05-06T01:42:54.078Z,1003.44
2019-05-06T01:43:54.504Z,1003.40
2019-05-06T01:44:53.854Z,1003.49
2019-05-06T01:45:53.708Z,1003.46
2019-05-06T01:46:54.180Z,1003.50
2019-05-06T01:47:54.407Z,1003.47
2019-05-06T01:48:53.609Z,1003.46
2019-05-06T01:49:53.795Z,1003.42
2019-05-06T01:50:54.023Z,1003.45
2019-05-06T01:51:54.516Z,1003.50
2019-05-06T01:52:53.981Z,1003.46
2019-05-06T01:53:54.472Z,1003.34
2019-05-06T01:54:54.200Z,1003.38
2019-05-06T01:55:54.470Z,1003.44
2019-05-06T01:56:53.786Z,1003.39
2019-05-06T01:57:54.451Z,1003.43
2019-05-06T01:58:53.583Z,1003.46
2019-05-06T01:59:54.011Z,1003.42
2019-05-06T02:00:54.458Z,1003.41
2019-05-06T02:01:59.219Z,1003.42
2019-05-06T02:02:54.771Z,1003.38
2019-05-06T02:03:53.792Z,1003.45
2019-05-06T02:04:54.102Z,1003.40
2019-05-06T02:05:53.996Z,1003.52
2019-05-06T02:06:54.356Z,1003.44
2019-05-06T02:07:54.896Z,1003.39
2019-05-06T02:08:54.006Z,1003.48
2019-05-06T02:09:54.286Z,1003.46
2019-05-06T02:10:54.397Z,1003.42
2019-05-06T02:11:53.622Z,1003.46
2019-05-06T02:12:54.097Z,1003.43
2019-05-06T02:13:53.789Z,1003.46
2019-05-06T02:14:54.196Z,1003.45
2019-05-06T02:15:54.601Z,1003.38
2019-05-06T02:16:54.351Z,1003.53
2019-05-06T02:17:52.282Z,1003.46
2019-05-06T02:18:54.036Z,1003.50
2019-05-06T02:19:54.452Z,1003.47
2019-05-06T02:20:53.808Z,1003.55
2019-05-06T02:21:54.107Z,1003.54
2019-05-06T02:22:53.847Z,1003.44
2019-05-06T02:23:53.532Z,1003.56
2019-05-06T02:24:53.598Z,1003.52
2019-05-06T02:25:53.986Z,1003.49
2019-05-06T02:26:53.733Z,1003.58
2019-05-06T02:27:54.170Z,1003.57
2019-05-06T02:28:54.043Z,1003.45
2019-05-06T02:29:54.192Z,1003.48
2019-05-06T02:30:54.530Z,1003.44
2019-05-06T02:31:54.614Z,1003.48
2019-05-06T02:32:55.409Z,1003.49
2019-05-06T02:33:55.475Z,1003.51
2019-05-06T02:34:54.561Z,1003.47
2019-05-06T02:35:54.884Z,1003.48
2019-05-06T02:36:54.943Z,1003.43
2019-05-06T02:37:54.766Z,1003.47
2019-05-06T02:38:55.495Z,1003.46
2019-05-06T02:39:53.290Z,1003.35
2019-05-06T02:40:53.559Z,1003.42
2019-05-06T02:41:54.583Z,1003.43
2019-05-06T02:42:54.604Z,1003.42
2019-05-06T02:43:54.188Z,1003.47
2019-05-06T02:44:54.166Z,1003.36
2019-05-06T02:45:53.144Z,1003.43
2019-05-06T02:46:53.357Z,1003.41
2019-05-06T02:47:53.740Z,1003.46
2019-05-06T02:48:54.259Z,1003.49
2019-05-06T02:49:53.432Z,1003.39
2019-05-06T02:50:53.739Z,1003.44
2019-05-06T02:51:53.567Z,1003.47
2019-05-06T02:52:53.809Z,1003.42
2019-05-06T02:53:53.797Z,1003.47
2019-05-06T02:54:53.751Z,1003.45
2019-05-06T02:55:53.168Z,1003.47
2019-05-06T02:56:53.210Z,1003.50
2019-05-06T02:57:53.639Z,1003.39
2019-05-06T02:58:53.512Z,1003.45
2019-05-06T02:59:55.365Z,1003.45
2019-05-06T03:00:53.869Z,1003.40
2019-05-06T03:01:53.779Z,1003.43
2019-05-06T03:02:54.208Z,1003.45
2019-05-06T03:03:53.587Z,1003.46
2019-05-06T03:04:52.922Z,1003.41
2019-05-06T03:05:53.283Z,1003.40
2019-05-06T03:06:53.266Z,1003.38
2019-05-06T03:07:57.038Z,1003.36
2019-05-06T03:08:54.098Z,1003.43
2019-05-06T03:09:53.219Z,1003.36
2019-05-06T03:10:53.409Z,1003.41
2019-05-06T03:11:53.932Z,1003.42
2019-05-06T03:12:53.721Z,1003.42
2019-05-06T03:13:53.750Z,1003.41
2019-05-06T03:14:53.307Z,1003.45
2019-05-06T03:15:54.047Z,1003.40
2019-05-06T03:16:53.849Z,1003.42
2019-05-06T03:17:55.088Z,1003.42
2019-05-06T03:18:53.174Z,1003.34
2019-05-06T03:19:52.733Z,1003.41
2019-05-06T03:20:53.289Z,1003.42
2019-05-06T03:21:54.068Z,1003.40
2019-05-06T03:22:54.351Z,1003.44
2019-05-06T03:23:54.234Z,1003.43
2019-05-06T03:24:54.208Z,1003.44
2019-05-06T03:25:53.309Z,1003.44
2019-05-06T03:26:53.374Z,1003.45
2019-05-06T03:27:53.202Z,1003.43
2019-05-06T03:28:53.547Z,1003.35
2019-05-06T03:29:53.694Z,1003.45
2019-05-06T03:30:55.847Z,1003.31
2019-05-06T03:31:56.299Z,1003.35
2019-05-06T03:33:23.405Z,1003.40
2019-05-06T03:34:16.080Z,1003.39
2019-05-06T03:35:15.950Z,1003.42
2019-05-06T03:36:06.283Z,1003.35
2019-05-06T03:36:56.204Z,1003.38
2019-05-06T03:37:53.363Z,1003.42
2019-05-06T03:38:53.578Z,1003.37
2019-05-06T03:39:52.864Z,1003.40
2019-05-06T03:40:53.815Z,1003.41
2019-05-06T03:41:53.677Z,1003.39
2019-05-06T03:42:53.879Z,1003.38
2019-05-06T03:43:54.035Z,1003.36
2019-05-06T03:44:53.266Z,1003.42
2019-05-06T03:45:53.680Z,1003.44
2019-05-06T03:46:53.904Z,1003.42
2019-05-06T03:47:54.090Z,1003.40
2019-05-06T03:48:53.045Z,1003.40
2019-05-06T03:49:54.546Z,1003.43
2019-05-06T03:50:55.468Z,1003.45
2019-05-06T03:51:55.973Z,1003.38
2019-05-06T03:52:56.050Z,1003.38
2019-05-06T03:53:54.030Z,1003.38
2019-05-06T03:54:53.599Z,1003.37
2019-05-06T03:55:53.738Z,1003.35
2019-05-06T03:56:53.730Z,1003.33
2019-05-06T03:57:53.899Z,1003.38
2019-05-06T03:58:53.643Z,1003.33
2019-05-06T03:59:52.887Z,1003.39
2019-05-06T04:00:53.133Z,1003.37
2019-05-06T04:01:53.432Z,1003.32
2019-05-06T04:02:53.624Z,1003.35
2019-05-06T04:03:53.704Z,1003.30
2019-05-06T04:04:55.890Z,1003.31
2019-05-06T04:05:52.526Z,1003.37
2019-05-06T04:06:53.811Z,1003.41
2019-05-06T04:07:52.997Z,1003.39
2019-05-06T04:08:52.870Z,1003.37
2019-05-06T04:09:53.567Z,1003.34
2019-05-06T04:10:53.763Z,1003.39
2019-05-06T04:11:53.900Z,1003.33
2019-05-06T04:12:53.634Z,1003.36
2019-05-06T04:13:53.419Z,1003.39
2019-05-06T04:14:53.951Z,1003.39
2019-05-06T04:15:53.798Z,1003.38
2019-05-06T04:16:53.196Z,1003.38
2019-05-06T04:17:53.558Z,1003.42
2019-05-06T04:18:53.895Z,1003.48
2019-05-06T04:19:53.493Z,1003.40
2019-05-06T04:20:53.146Z,1003.37
2019-05-06T04:21:53.079Z,1003.36
2019-05-06T04:22:53.118Z,1003.35
2019-05-06T04:23:53.426Z,1003.39
2019-05-06T04:24:53.686Z,1003.40
2019-05-06T04:25:52.742Z,1003.35
2019-05-06T04:26:53.422Z,1003.34
2019-05-06T04:27:53.483Z,1003.42
2019-05-06T04:28:53.395Z,1003.35
2019-05-06T04:29:50.892Z,1003.39
2019-05-06T04:30:50.905Z,1003.40
2019-05-06T04:31:53.704Z,1003.42
2019-05-06T04:32:53.163Z,1003.43
2019-05-06T04:34:08.691Z,1003.40
2019-05-06T04:34:53.508Z,1003.49
2019-05-06T04:35:53.791Z,1003.45
2019-05-06T04:36:53.363Z,1003.50
2019-05-06T04:37:53.531Z,1003.44
2019-05-06T04:38:53.681Z,1003.45
2019-05-06T04:39:53.169Z,1003.39
2019-05-06T04:40:53.532Z,1003.41
2019-05-06T04:41:53.617Z,1003.41
2019-05-06T04:42:52.812Z,1003.51
2019-05-06T04:43:53.136Z,1003.42
2019-05-06T04:44:53.137Z,1003.52
2019-05-06T04:45:53.715Z,1003.49
2019-05-06T04:46:54.079Z,1003.49
2019-05-06T04:47:53.499Z,1003.53
2019-05-06T04:48:53.587Z,1003.42
2019-05-06T04:49:53.254Z,1003.39
2019-05-06T04:50:53.346Z,1003.44
2019-05-06T04:51:53.849Z,1003.39
2019-05-06T04:52:53.511Z,1003.45
2019-05-06T04:53:53.420Z,1003.40
2019-05-06T04:54:53.197Z,1003.51
2019-05-06T04:55:53.652Z,1003.48
2019-05-06T04:56:53.543Z,1003.49
2019-05-06T04:57:53.444Z,1003.45
2019-05-06T04:58:53.563Z,1003.48
2019-05-06T04:59:50.575Z,1003.44
2019-05-06T05:00:53.073Z,1003.52
2019-05-06T05:01:53.196Z,1003.50
2019-05-06T05:02:50.546Z,1003.45
2019-05-06T05:03:53.556Z,1003.50
2019-05-06T05:04:52.827Z,1003.52
2019-05-06T05:05:53.066Z,1003.49
2019-05-06T05:06:52.418Z,1003.50
2019-05-06T05:07:52.839Z,1003.47
2019-05-06T05:08:53.027Z,1003.54
2019-05-06T05:09:50.469Z,1003.48
2019-05-06T05:10:52.836Z,1003.51
2019-05-06T05:11:53.015Z,1003.48
2019-05-06T05:12:52.555Z,1003.52
2019-05-06T05:13:52.971Z,1003.52
2019-05-06T05:14:51.971Z,1003.54
2019-05-06T05:15:52.418Z,1003.53
2019-05-06T05:16:50.419Z,1003.57
2019-05-06T05:17:52.497Z,1003.51
2019-05-06T05:18:50.361Z,1003.56
2019-05-06T05:19:52.267Z,1003.58
2019-05-06T05:20:50.339Z,1003.60
2019-05-06T05:21:52.196Z,1003.68
2019-05-06T05:22:50.327Z,1003.54
2019-05-06T05:23:52.253Z,1003.60
2019-05-06T05:24:52.164Z,1003.59
2019-05-06T05:25:52.136Z,1003.54
2019-05-06T05:26:52.191Z,1003.63
2019-05-06T05:27:50.276Z,1003.57
2019-05-06T05:28:50.293Z,1003.65
2019-05-06T05:29:52.053Z,1003.57
2019-05-06T05:30:52.071Z,1003.57
2019-05-06T05:31:50.239Z,1003.66
2019-05-06T05:32:52.031Z,1003.61
2019-05-06T05:33:52.462Z,1003.51
2019-05-06T05:34:52.110Z,1003.63
2019-05-06T05:35:52.387Z,1003.66
2019-05-06T05:36:51.968Z,1003.64
2019-05-06T05:37:50.170Z,1003.63
2019-05-06T05:38:52.258Z,1003.61
2019-05-06T05:39:52.004Z,1003.63
2019-05-06T05:40:52.224Z,1003.66
2019-05-06T05:41:52.027Z,1003.62
2019-05-06T05:42:52.099Z,1003.63
2019-05-06T05:43:50.109Z,1003.65
2019-05-06T05:44:50.095Z,1003.61
2019-05-06T05:45:52.195Z,1003.70
2019-05-06T05:46:51.912Z,1003.69
2019-05-06T05:47:52.184Z,1003.64
2019-05-06T05:48:51.995Z,1003.63
2019-05-06T05:49:50.045Z,1003.66
2019-05-06T05:50:51.963Z,1003.72
2019-05-06T05:51:51.931Z,1003.76
2019-05-06T05:52:51.942Z,1003.71
2019-05-06T05:53:51.837Z,1003.73
2019-05-06T05:54:52.240Z,1003.72
2019-05-06T05:55:49.982Z,1003.77
2019-05-06T05:56:49.996Z,1003.73
2019-05-06T05:57:51.817Z,1003.72
2019-05-06T05:58:49.953Z,1003.72
2019-05-06T05:59:49.974Z,1003.77
2019-05-06T06:00:51.995Z,1003.75
2019-05-06T06:01:49.969Z,1003.67
2019-05-06T06:02:52.859Z,1003.71
2019-05-06T06:03:49.898Z,1003.64
2019-05-06T06:04:54.822Z,1003.72
2019-05-06T06:05:52.064Z,1003.75
2019-05-06T06:06:51.851Z,1003.70
2019-05-06T06:07:49.870Z,1003.71
2019-05-06T06:08:52.110Z,1003.70
2019-05-06T06:09:49.827Z,1003.72
2019-05-06T06:10:52.226Z,1003.71
2019-05-06T06:11:49.813Z,1003.69
2019-05-06T06:12:49.816Z,1003.74
2019-05-06T06:13:49.790Z,1003.76
2019-05-06T06:14:52.526Z,1003.74
2019-05-06T06:15:52.148Z,1003.70
2019-05-06T06:16:49.755Z,1003.73
2019-05-06T06:17:51.437Z,1003.74
2019-05-06T06:18:49.745Z,1003.75
2019-05-06T06:19:49.722Z,1003.68
2019-05-06T06:20:49.717Z,1003.72
2019-05-06T06:21:49.703Z,1003.71
2019-05-06T06:22:52.146Z,1003.72
2019-05-06T06:23:49.692Z,1003.70
2019-05-06T06:24:49.677Z,1003.73
2019-05-06T06:25:49.659Z,1003.67
2019-05-06T06:26:49.650Z,1003.69
2019-05-06T06:27:51.919Z,1003.74
2019-05-06T06:28:49.627Z,1003.71
2019-05-06T06:29:49.608Z,1003.74
2019-05-06T06:30:49.607Z,1003.70
2019-05-06T06:31:49.596Z,1003.67
2019-05-06T06:32:49.641Z,1003.65
2019-05-06T06:33:49.564Z,1003.66
2019-05-06T06:34:51.994Z,1003.70
2019-05-06T06:35:51.511Z,1003.63
2019-05-06T06:36:49.548Z,1003.70
2019-05-06T06:37:49.561Z,1003.72
2019-05-06T06:38:49.525Z,1003.71
2019-05-06T06:39:49.503Z,1003.67
2019-05-06T06:40:49.526Z,1003.74
2019-05-06T06:41:49.493Z,1003.75
2019-05-06T06:42:49.483Z,1003.72
2019-05-06T06:43:49.471Z,1003.74
2019-05-06T06:44:49.464Z,1003.77
2019-05-06T06:45:49.476Z,1003.76
2019-05-06T06:46:49.444Z,1003.81
2019-05-06T06:47:49.450Z,1003.73
2019-05-06T06:48:49.419Z,1003.68
2019-05-06T06:49:49.408Z,1003.65
2019-05-06T06:50:49.397Z,1003.74
2019-05-06T06:51:49.388Z,1003.67
2019-05-06T06:52:49.403Z,1003.73
2019-05-06T06:53:49.366Z,1003.66
2019-05-06T06:54:49.357Z,1003.64
2019-05-06T06:55:49.344Z,1003.63
2019-05-06T06:57:03.210Z,1003.70
2019-05-06T06:57:51.899Z,1003.71
2019-05-06T06:58:49.317Z,1003.73
2019-05-06T06:59:49.303Z,1003.66
2019-05-06T07:00:49.294Z,1003.71
2019-05-06T07:01:49.279Z,1003.67
2019-05-06T07:02:49.307Z,1003.76
2019-05-06T07:03:49.264Z,1003.75
2019-05-06T07:04:49.248Z,1003.82
2019-05-06T07:05:49.243Z,1003.73
2019-05-06T07:06:49.235Z,1003.71
2019-05-06T07:07:49.250Z,1003.74
2019-05-06T07:08:49.207Z,1003.73
2019-05-06T07:09:49.210Z,1003.73
2019-05-06T07:10:49.183Z,1003.75
2019-05-06T07:11:49.175Z,1003.82
2019-05-06T07:12:49.189Z,1003.80
2019-05-06T07:13:49.155Z,1003.74
2019-05-06T07:14:49.151Z,1003.77
2019-05-06T07:15:49.135Z,1003.78
2019-05-06T07:16:49.123Z,1003.76
2019-05-06T07:17:49.130Z,1003.79
2019-05-06T07:18:49.097Z,1003.84
2019-05-06T07:19:49.085Z,1003.84
2019-05-06T07:20:49.071Z,1003.79
2019-05-06T07:21:49.063Z,1003.82
2019-05-06T07:22:49.080Z,1003.84
2019-05-06T07:23:49.048Z,1003.78
2019-05-06T07:24:49.033Z,1003.86
2019-05-06T07:25:49.021Z,1003.87
2019-05-06T07:26:49.010Z,1003.79
2019-05-06T07:27:49.024Z,1003.77
2019-05-06T07:28:48.991Z,1003.81
2019-05-06T07:29:48.988Z,1003.81
2019-05-06T07:30:48.972Z,1003.85
2019-05-06T07:31:48.985Z,1003.80
2019-05-06T07:32:48.947Z,1003.82
2019-05-06T07:33:48.939Z,1003.84
2019-05-06T07:34:48.928Z,1003.79
2019-05-06T07:35:48.915Z,1003.84
2019-05-06T07:36:48.929Z,1003.81
2019-05-06T07:37:48.892Z,1003.77
2019-05-06T07:38:48.885Z,1003.86
2019-05-06T07:39:48.877Z,1003.86
2019-05-06T07:40:48.870Z,1003.92
2019-05-06T07:41:48.884Z,1003.90
2019-05-06T07:42:48.872Z,1003.96
2019-05-06T07:43:48.833Z,1003.86
2019-05-06T07:44:48.821Z,1003.96
2019-05-06T07:45:48.812Z,1003.96
2019-05-06T07:46:48.828Z,1003.89
2019-05-06T07:47:48.793Z,1003.85
2019-05-06T07:48:48.779Z,1003.99
2019-05-06T07:49:48.770Z,1003.91
2019-05-06T07:50:49.261Z,1003.91
2019-05-06T07:51:48.767Z,1003.94
2019-05-06T07:52:48.739Z,1003.94
2019-05-06T07:53:48.721Z,1003.88
2019-05-06T07:54:48.781Z,1004.01
2019-05-06T07:55:48.700Z,1003.98
2019-05-06T07:56:48.731Z,1004.00
2019-05-06T07:57:50.584Z,1003.97
2019-05-06T07:58:48.662Z,1004.02
2019-05-06T07:59:48.668Z,1004.03
2019-05-06T08:00:48.647Z,1004.11
2019-05-06T08:01:48.683Z,1003.98
2019-05-06T08:02:48.617Z,1004.02
2019-05-06T08:03:48.633Z,1004.05
2019-05-06T08:04:48.602Z,1003.96
2019-05-06T08:05:55.723Z,1003.98
2019-05-06T08:06:49.610Z,1004.05
2019-05-06T08:07:48.580Z,1004.07
2019-05-06T08:08:48.565Z,1004.00
2019-05-06T08:09:48.556Z,1003.92
2019-05-06T08:10:48.542Z,1003.91
2019-05-06T08:11:48.534Z,1003.93
2019-05-06T08:12:48.545Z,1003.85
2019-05-06T08:13:48.524Z,1003.86
2019-05-06T08:14:48.497Z,1003.82
2019-05-06T08:15:48.493Z,1003.91
2019-05-06T08:16:48.476Z,1003.87
2019-05-06T08:17:48.492Z,1003.90
2019-05-06T08:18:48.460Z,1003.90
2019-05-06T08:19:48.448Z,1003.79
2019-05-06T08:20:48.440Z,1003.89
2019-05-06T08:21:48.423Z,1003.86
2019-05-06T08:22:48.435Z,1003.85
2019-05-06T08:23:48.407Z,1003.88
2019-05-06T08:24:48.388Z,1003.89
2019-05-06T08:25:48.376Z,1003.83
2019-05-06T08:26:48.365Z,1003.87
2019-05-06T08:27:49.609Z,1003.84
2019-05-06T08:28:48.341Z,1003.89
2019-05-06T08:29:48.338Z,1003.80
2019-05-06T08:30:48.324Z,1003.79
2019-05-06T08:31:48.325Z,1003.78
2019-05-06T08:32:48.327Z,1003.80
2019-05-06T08:33:48.291Z,1003.84
2019-05-06T08:34:48.283Z,1003.82
2019-05-06T08:35:48.268Z,1003.82
2019-05-06T08:36:48.266Z,1003.85
2019-05-06T08:37:48.278Z,1003.74
2019-05-06T08:38:48.237Z,1003.85
2019-05-06T08:39:48.231Z,1003.85
2019-05-06T08:40:48.218Z,1003.80
2019-05-06T08:41:48.206Z,1003.78
2019-05-06T08:42:48.281Z,1003.77
2019-05-06T08:43:48.184Z,1003.79
2019-05-06T08:44:48.172Z,1003.74
2019-05-06T08:45:48.165Z,1003.75
2019-05-06T08:46:48.154Z,1003.72
2019-05-06T08:47:48.170Z,1003.83
2019-05-06T08:48:48.130Z,1003.81
2019-05-06T08:49:49.381Z,1003.77
2019-05-06T08:50:48.105Z,1003.66
2019-05-06T08:51:48.098Z,1003.77
2019-05-06T08:52:48.112Z,1003.78
2019-05-06T08:53:48.075Z,1003.78
2019-05-06T08:54:48.067Z,1003.76
2019-05-06T08:55:48.051Z,1003.69
2019-05-06T08:56:48.049Z,1003.71
2019-05-06T08:57:48.072Z,1003.71
2019-05-06T08:58:48.015Z,1003.67
2019-05-06T08:59:48.005Z,1003.74
2019-05-06T09:00:48.010Z,1003.76
2019-05-06T09:01:47.991Z,1003.80
2019-05-06T09:02:47.974Z,1003.67
2019-05-06T09:03:47.996Z,1003.67
2019-05-06T09:04:47.953Z,1003.63
2019-05-06T09:05:47.943Z,1003.71
2019-05-06T09:06:47.936Z,1003.72
2019-05-06T09:07:47.913Z,1003.75
2019-05-06T09:08:47.973Z,1003.76
2019-05-06T09:09:47.899Z,1003.73
2019-05-06T09:10:47.887Z,1003.92
2019-05-06T09:11:47.916Z,1003.84
2019-05-06T09:12:47.860Z,1003.93
2019-05-06T09:13:47.965Z,1003.90
2019-05-06T09:14:47.843Z,1003.83
2019-05-06T09:15:47.824Z,1003.87
2019-05-06T09:16:50.659Z,1003.99
2019-05-06T09:17:48.815Z,1003.80
2019-05-06T09:18:47.839Z,1003.77
2019-05-06T09:19:47.797Z,1003.80
2019-05-06T09:20:47.776Z,1003.92
2019-05-06T09:21:47.772Z,1003.90
2019-05-06T09:22:47.765Z,1003.91
2019-05-06T09:23:47.781Z,1003.99
2019-05-06T09:24:47.743Z,1003.72
2019-05-06T09:25:47.728Z,1003.72
2019-05-06T09:26:47.718Z,1003.37
2019-05-06T09:27:47.715Z,1003.64
2019-05-06T09:28:47.710Z,1003.72
2019-05-06T09:29:47.692Z,1003.62
2019-05-06T09:30:47.679Z,1003.64
2019-05-06T09:31:47.671Z,1003.56
2019-05-06T09:32:47.657Z,1003.67
2019-05-06T09:33:47.674Z,1003.97
2019-05-06T09:34:47.633Z,1003.82
2019-05-06T09:35:47.624Z,1003.87
2019-05-06T09:36:52.006Z,1003.75
2019-05-06T09:37:48.599Z,1003.85
2019-05-06T09:38:47.648Z,1003.83
2019-05-06T09:39:47.592Z,1003.90
2019-05-06T09:40:47.571Z,1003.95
2019-05-06T09:41:48.954Z,1003.74
2019-05-06T09:42:47.550Z,1003.91
2019-05-06T09:43:47.562Z,1003.84
2019-05-06T09:44:50.403Z,1003.83
2019-05-06T09:45:47.520Z,1003.75
2019-05-06T09:46:47.511Z,1003.81
2019-05-06T09:47:47.498Z,1003.91
2019-05-06T09:48:47.510Z,1003.67
2019-05-06T09:49:47.503Z,1003.76
2019-05-06T09:50:47.472Z,1003.85
2019-05-06T09:51:47.456Z,1003.86
2019-05-06T09:52:47.448Z,1003.89
2019-05-06T09:53:47.436Z,1003.76
2019-05-06T09:54:47.453Z,1003.56
2019-05-06T09:55:47.417Z,1003.61
2019-05-06T09:56:47.404Z,1003.86
2019-05-06T09:57:47.396Z,1003.88
2019-05-06T09:58:47.391Z,1003.79
2019-05-06T09:59:47.398Z,1003.69
2019-05-06T10:00:47.363Z,1003.78
2019-05-06T10:01:47.358Z,1003.74
2019-05-06T10:02:49.494Z,1003.82
2019-05-06T10:03:47.336Z,1003.50
2019-05-06T10:04:47.349Z,1003.68
2019-05-06T10:05:47.316Z,1003.87
2019-05-06T10:06:56.355Z,1003.70
2019-05-06T10:07:48.292Z,1003.41
2019-05-06T10:08:47.284Z,1003.44
2019-05-06T10:09:47.299Z,1003.51
2019-05-06T10:10:56.823Z,1003.59
2019-05-06T10:11:48.253Z,1003.53
2019-05-06T10:12:47.240Z,1003.53
2019-05-06T10:13:47.235Z,1003.57
2019-05-06T10:14:47.244Z,1003.57
2019-05-06T10:15:47.212Z,1003.68
2019-05-06T10:16:47.203Z,1003.44
2019-05-06T10:17:47.191Z,1003.49
2019-05-06T10:18:47.179Z,1003.24
2019-05-06T10:19:47.192Z,1003.64
2019-05-06T10:20:47.155Z,1003.64
2019-05-06T10:21:47.152Z,1003.64
2019-05-06T10:22:47.140Z,1003.62
2019-05-06T10:23:47.122Z,1003.62
2019-05-06T10:24:47.205Z,1003.78
2019-05-06T10:25:47.112Z,1003.65
2019-05-06T10:26:47.094Z,1003.50
2019-05-06T10:27:47.083Z,1003.56
2019-05-06T10:28:47.070Z,1003.42
2019-05-06T10:29:47.108Z,1003.45
2019-05-06T10:30:47.063Z,1003.31
2019-05-06T10:31:47.033Z,1003.32
2019-05-06T10:32:47.035Z,1003.43
2019-05-06T10:33:47.023Z,1003.37
2019-05-06T10:34:47.041Z,1003.37
2019-05-06T10:35:46.999Z,1003.34
2019-05-06T10:36:46.992Z,1003.33
2019-05-06T10:37:46.979Z,1003.33
2019-05-06T10:38:46.966Z,1003.38
2019-05-06T10:39:46.998Z,1003.44
2019-05-06T10:40:59.655Z,1003.44
2019-05-06T10:41:47.960Z,1003.41
2019-05-06T10:42:46.936Z,1003.37
2019-05-06T10:43:46.935Z,1003.38
2019-05-06T10:44:46.922Z,1003.47
2019-05-06T10:45:46.958Z,1003.38
2019-05-06T10:46:46.883Z,1003.45
2019-05-06T10:47:46.911Z,1003.51
2019-05-06T10:48:46.872Z,1003.34
2019-05-06T10:49:46.860Z,1003.30
2019-05-06T10:50:46.866Z,1003.29
2019-05-06T10:51:46.908Z,1002.98
2019-05-06T10:52:46.918Z,1003.32
2019-05-06T10:53:46.911Z,1003.20
2019-05-06T10:54:47.325Z,1003.40
2019-05-06T10:55:46.846Z,1003.55
2019-05-06T10:56:53.828Z,1003.43
2019-05-06T10:57:47.768Z,1003.39
2019-05-06T10:58:46.759Z,1003.54
2019-05-06T10:59:46.756Z,1003.47
2019-05-06T11:00:46.779Z,1003.50
2019-05-06T11:01:47.331Z,1003.31
2019-05-06T11:02:46.718Z,1003.30
2019-05-06T11:03:46.706Z,1003.44
2019-05-06T11:04:46.694Z,1003.41
2019-05-06T11:05:46.710Z,1003.45
2019-05-06T11:06:46.683Z,1003.41
2019-05-06T11:07:46.666Z,1003.43
2019-05-06T11:08:46.659Z,1003.43
2019-05-06T11:09:46.644Z,1003.45
2019-05-06T11:10:46.663Z,1003.45
2019-05-06T11:11:46.626Z,1003.41
2019-05-06T11:12:46.627Z,1003.40
2019-05-06T11:13:46.601Z,1003.42
2019-05-06T11:14:46.598Z,1003.49
2019-05-06T11:15:46.607Z,1003.50
2019-05-06T11:16:46.571Z,1003.35
2019-05-06T11:17:46.561Z,1003.30
2019-05-06T11:18:46.552Z,1003.20
2019-05-06T11:19:46.546Z,1003.03
2019-05-06T11:20:46.561Z,1003.06
2019-05-06T11:21:46.521Z,1002.87
2019-05-06T11:22:46.511Z,1003.09
2019-05-06T11:23:46.504Z,1002.96
2019-05-06T11:24:46.496Z,1003.05
2019-05-06T11:25:46.613Z,1003.08
2019-05-06T11:26:46.484Z,1002.99
2019-05-06T11:27:46.459Z,1003.07
2019-05-06T11:28:46.450Z,1003.11
2019-05-06T11:29:46.432Z,1003.04
2019-05-06T11:30:46.466Z,1003.06
2019-05-06T11:31:46.415Z,1003.01
2019-05-06T11:32:46.407Z,1003.05
2019-05-06T11:33:46.396Z,1003.04
2019-05-06T11:34:46.382Z,1003.04
2019-05-06T11:35:46.379Z,1003.02
2019-05-06T11:36:46.389Z,1003.07
2019-05-06T11:37:50.602Z,1003.09
2019-05-06T11:38:48.564Z,1003.12
2019-05-06T11:39:46.325Z,1003.10
2019-05-06T11:40:46.318Z,1003.09
2019-05-06T11:42:05.274Z,1003.05
2019-05-06T11:42:47.303Z,1003.08
2019-05-06T11:43:46.291Z,1003.02
2019-05-06T11:44:46.295Z,1002.97
2019-05-06T11:45:46.266Z,1002.97
2019-05-06T11:46:46.287Z,1002.98
2019-05-06T11:47:46.252Z,1002.97
2019-05-06T11:48:46.239Z,1003.05
2019-05-06T11:49:46.235Z,1003.19
2019-05-06T11:50:46.216Z,1003.00
2019-05-06T11:51:46.241Z,1002.91
2019-05-06T11:52:46.200Z,1002.87
2019-05-06T11:53:46.189Z,1002.92
2019-05-06T11:54:46.175Z,1002.97
2019-05-06T11:55:46.169Z,1002.79
2019-05-06T11:56:50.871Z,1002.90
2019-05-06T11:57:47.150Z,1002.83
2019-05-06T11:58:46.141Z,1002.97
2019-05-06T11:59:46.128Z,1002.87
2019-05-06T12:00:46.111Z,1002.87
2019-05-06T12:01:46.138Z,1003.14
2019-05-06T12:02:48.642Z,1002.99
2019-05-06T12:03:46.085Z,1003.27
2019-05-06T12:04:46.079Z,1003.31
2019-05-06T12:05:46.058Z,1003.10